sensor_id;sensor_type;location;lat;lon;timestamp;P1;durP1;ratioP1;P2;durP2;ratioP2
16254;SDS011;8235;52.198;9.904;2023-03-31T00:01:40;7.20;;;2.13;;
16254;SDS011;8235;52.198;9.904;2023-03-31T00:04:07;4.43;;;2.10;;
16254;SDS011;8235;52.198;9.904;2023-03-31T00:06:37;7.13;;;1.60;;
16254;SDS011;8235;52.198;9.904;2023-03-31T00:09:06;7.13;;;2.30;;
16254;SDS011;8235;52.198;9.904;2023-03-31T00:11:34;6.10;;;1.50;;
16254;SDS011;8235;52.198;9.904;2023-03-31T00:14:01;4.17;;;1.60;;
16254;SDS011;8235;52.198;9.904;2023-03-31T00:16:32;3.50;;;1.50;;
16254;SDS011;8235;52.198;9.904;2023-03-31T00:18:58;4.27;;;1.70;;
16254;SDS011;8235;52.198;9.904;2023-03-31T00:21:26;7.20;;;2.07;;
16254;SDS011;8235;52.198;9.904;2023-03-31T00:23:58;6.70;;;1.80;;
16254;SDS011;8235;52.198;9.904;2023-03-31T00:26:26;3.77;;;1.30;;
16254;SDS011;8235;52.198;9.904;2023-03-31T00:28:53;6.90;;;1.20;;
16254;SDS011;8235;52.198;9.904;2023-03-31T00:31:21;6.13;;;1.50;;
16254;SDS011;8235;52.198;9.904;2023-03-31T00:33:49;4.23;;;1.30;;
16254;SDS011;8235;52.198;9.904;2023-03-31T00:36:16;3.00;;;1.40;;
16254;SDS011;8235;52.198;9.904;2023-03-31T00:38:45;4.63;;;1.40;;
16254;SDS011;8235;52.198;9.904;2023-03-31T00:41:12;3.37;;;1.13;;
16254;SDS011;8235;52.198;9.904;2023-03-31T00:43:38;6.03;;;1.43;;
16254;SDS011;8235;52.198;9.904;2023-03-31T00:46:08;4.33;;;1.90;;
16254;SDS011;8235;52.198;9.904;2023-03-31T00:48:42;6.07;;;1.50;;
16254;SDS011;8235;52.198;9.904;2023-03-31T00:51:15;5.33;;;1.63;;
16254;SDS011;8235;52.198;9.904;2023-03-31T00:53:42;3.03;;;1.30;;
16254;SDS011;8235;52.198;9.904;2023-03-31T00:56:10;3.73;;;1.40;;
16254;SDS011;8235;52.198;9.904;2023-03-31T00:58:39;4.43;;;2.00;;
16254;SDS011;8235;52.198;9.904;2023-03-31T01:01:08;3.63;;;1.10;;
16254;SDS011;8235;52.198;9.904;2023-03-31T01:03:39;3.50;;;1.37;;
16254;SDS011;8235;52.198;9.904;2023-03-31T01:06:10;4.93;;;1.17;;
16254;SDS011;8235;52.198;9.904;2023-03-31T01:08:40;4.87;;;1.33;;
16254;SDS011;8235;52.198;9.904;2023-03-31T01:11:08;4.83;;;1.20;;
16254;SDS011;8235;52.198;9.904;2023-03-31T01:13:37;4.70;;;1.50;;
16254;SDS011;8235;52.198;9.904;2023-03-31T01:16:05;4.63;;;1.30;;
16254;SDS011;8235;52.198;9.904;2023-03-31T01:18:31;3.20;;;1.03;;
16254;SDS011;8235;52.198;9.904;2023-03-31T01:24:16;4.23;;;1.43;;
16254;SDS011;8235;52.198;9.904;2023-03-31T01:27:28;3.83;;;1.03;;
16254;SDS011;8235;52.198;9.904;2023-03-31T01:30:12;5.13;;;1.70;;
16254;SDS011;8235;52.198;9.904;2023-03-31T01:33:19;4.20;;;1.10;;
16254;SDS011;8235;52.198;9.904;2023-03-31T01:36:24;4.33;;;1.50;;
16254;SDS011;8235;52.198;9.904;2023-03-31T01:39:07;4.00;;;1.00;;
16254;SDS011;8235;52.198;9.904;2023-03-31T01:41:55;3.97;;;1.10;;
16254;SDS011;8235;52.198;9.904;2023-03-31T01:44:28;4.80;;;1.17;;
16254;SDS011;8235;52.198;9.904;2023-03-31T01:47:05;2.10;;;1.17;;
16254;SDS011;8235;52.198;9.904;2023-03-31T01:49:38;3.93;;;1.10;;
16254;SDS011;8235;52.198;9.904;2023-03-31T01:52:11;4.40;;;1.30;;
16254;SDS011;8235;52.198;9.904;2023-03-31T01:54:46;3.53;;;1.10;;
16254;SDS011;8235;52.198;9.904;2023-03-31T01:57:19;2.97;;;1.00;;
16254;SDS011;8235;52.198;9.904;2023-03-31T01:59:51;2.60;;;1.10;;
16254;SDS011;8235;52.198;9.904;2023-03-31T02:02:26;6.23;;;1.17;;
16254;SDS011;8235;52.198;9.904;2023-03-31T02:04:55;2.57;;;1.07;;
16254;SDS011;8235;52.198;9.904;2023-03-31T02:07:26;4.23;;;1.10;;
16254;SDS011;8235;52.198;9.904;2023-03-31T02:09:57;5.03;;;1.43;;
16254;SDS011;8235;52.198;9.904;2023-03-31T02:12:29;2.77;;;0.97;;
16254;SDS011;8235;52.198;9.904;2023-03-31T02:14:58;3.50;;;1.20;;
16254;SDS011;8235;52.198;9.904;2023-03-31T02:17:28;6.27;;;1.93;;
16254;SDS011;8235;52.198;9.904;2023-03-31T02:19:57;2.40;;;0.90;;
16254;SDS011;8235;52.198;9.904;2023-03-31T02:22:28;3.93;;;0.90;;
16254;SDS011;8235;52.198;9.904;2023-03-31T02:24:59;2.87;;;1.13;;
16254;SDS011;8235;52.198;9.904;2023-03-31T02:27:29;3.13;;;1.10;;
16254;SDS011;8235;52.198;9.904;2023-03-31T02:29:58;3.33;;;1.00;;
16254;SDS011;8235;52.198;9.904;2023-03-31T02:32:26;3.97;;;1.07;;
16254;SDS011;8235;52.198;9.904;2023-03-31T02:34:57;2.97;;;0.83;;
16254;SDS011;8235;52.198;9.904;2023-03-31T02:37:24;4.93;;;1.00;;
16254;SDS011;8235;52.198;9.904;2023-03-31T02:39:52;4.17;;;1.03;;
16254;SDS011;8235;52.198;9.904;2023-03-31T02:42:22;2.93;;;0.93;;
16254;SDS011;8235;52.198;9.904;2023-03-31T02:44:50;3.07;;;1.00;;
16254;SDS011;8235;52.198;9.904;2023-03-31T02:47:17;3.70;;;1.30;;
16254;SDS011;8235;52.198;9.904;2023-03-31T02:49:47;2.73;;;0.90;;
16254;SDS011;8235;52.198;9.904;2023-03-31T02:52:19;4.77;;;0.90;;
16254;SDS011;8235;52.198;9.904;2023-03-31T02:55:02;2.87;;;1.07;;
16254;SDS011;8235;52.198;9.904;2023-03-31T03:00:49;3.83;;;1.00;;
16254;SDS011;8235;52.198;9.904;2023-03-31T03:03:28;2.97;;;1.30;;
16254;SDS011;8235;52.198;9.904;2023-03-31T03:06:10;1.67;;;0.87;;
16254;SDS011;8235;52.198;9.904;2023-03-31T03:08:50;4.73;;;0.97;;
16254;SDS011;8235;52.198;9.904;2023-03-31T03:11:33;5.03;;;1.00;;
16254;SDS011;8235;52.198;9.904;2023-03-31T03:14:09;3.00;;;0.90;;
16254;SDS011;8235;52.198;9.904;2023-03-31T03:16:44;2.10;;;0.93;;
16254;SDS011;8235;52.198;9.904;2023-03-31T03:19:16;7.20;;;1.20;;
16254;SDS011;8235;52.198;9.904;2023-03-31T03:21:45;5.30;;;0.90;;
16254;SDS011;8235;52.198;9.904;2023-03-31T03:24:11;4.03;;;1.00;;
16254;SDS011;8235;52.198;9.904;2023-03-31T03:26:38;3.87;;;1.00;;
16254;SDS011;8235;52.198;9.904;2023-03-31T03:29:05;5.10;;;1.43;;
16254;SDS011;8235;52.198;9.904;2023-03-31T03:31:32;3.77;;;1.10;;
16254;SDS011;8235;52.198;9.904;2023-03-31T03:34:00;2.83;;;0.83;;
16254;SDS011;8235;52.198;9.904;2023-03-31T03:36:27;2.60;;;0.80;;
16254;SDS011;8235;52.198;9.904;2023-03-31T03:38:53;3.47;;;0.70;;
16254;SDS011;8235;52.198;9.904;2023-03-31T03:41:20;2.83;;;1.03;;
16254;SDS011;8235;52.198;9.904;2023-03-31T03:43:46;1.63;;;1.03;;
16254;SDS011;8235;52.198;9.904;2023-03-31T03:46:13;2.80;;;0.80;;
16254;SDS011;8235;52.198;9.904;2023-03-31T03:48:39;6.27;;;1.00;;
16254;SDS011;8235;52.198;9.904;2023-03-31T03:51:07;4.13;;;0.87;;
16254;SDS011;8235;52.198;9.904;2023-03-31T03:53:33;4.03;;;1.20;;
16254;SDS011;8235;52.198;9.904;2023-03-31T03:56:00;2.63;;;0.90;;
16254;SDS011;8235;52.198;9.904;2023-03-31T03:58:26;4.20;;;1.30;;
16254;SDS011;8235;52.198;9.904;2023-03-31T04:00:53;2.67;;;0.90;;
16254;SDS011;8235;52.198;9.904;2023-03-31T04:03:21;4.93;;;1.03;;
16254;SDS011;8235;52.198;9.904;2023-03-31T04:05:47;4.70;;;0.97;;
16254;SDS011;8235;52.198;9.904;2023-03-31T04:08:15;4.33;;;1.17;;
16254;SDS011;8235;52.198;9.904;2023-03-31T04:10:42;2.57;;;0.80;;
16254;SDS011;8235;52.198;9.904;2023-03-31T04:13:09;2.90;;;0.90;;
16254;SDS011;8235;52.198;9.904;2023-03-31T04:15:36;3.47;;;1.10;;
16254;SDS011;8235;52.198;9.904;2023-03-31T04:18:03;3.43;;;0.97;;
16254;SDS011;8235;52.198;9.904;2023-03-31T04:20:29;3.87;;;1.07;;
16254;SDS011;8235;52.198;9.904;2023-03-31T04:22:56;5.80;;;1.00;;
16254;SDS011;8235;52.198;9.904;2023-03-31T04:25:24;3.10;;;1.00;;
16254;SDS011;8235;52.198;9.904;2023-03-31T04:27:50;1.70;;;0.70;;
16254;SDS011;8235;52.198;9.904;2023-03-31T04:30:19;3.80;;;1.33;;
16254;SDS011;8235;52.198;9.904;2023-03-31T04:32:50;2.03;;;0.90;;
16254;SDS011;8235;52.198;9.904;2023-03-31T04:35:17;4.73;;;1.10;;
16254;SDS011;8235;52.198;9.904;2023-03-31T04:37:44;6.03;;;1.13;;
16254;SDS011;8235;52.198;9.904;2023-03-31T04:40:11;5.83;;;1.77;;
16254;SDS011;8235;52.198;9.904;2023-03-31T04:42:39;2.90;;;1.47;;
16254;SDS011;8235;52.198;9.904;2023-03-31T04:45:06;3.13;;;1.00;;
16254;SDS011;8235;52.198;9.904;2023-03-31T04:47:33;3.70;;;1.00;;
16254;SDS011;8235;52.198;9.904;2023-03-31T04:50:00;3.10;;;1.00;;
16254;SDS011;8235;52.198;9.904;2023-03-31T04:52:26;2.87;;;1.13;;
16254;SDS011;8235;52.198;9.904;2023-03-31T04:54:53;2.90;;;0.83;;
16254;SDS011;8235;52.198;9.904;2023-03-31T04:57:19;4.00;;;1.40;;
16254;SDS011;8235;52.198;9.904;2023-03-31T04:59:47;2.57;;;1.30;;
16254;SDS011;8235;52.198;9.904;2023-03-31T05:02:14;3.20;;;1.00;;
16254;SDS011;8235;52.198;9.904;2023-03-31T05:04:47;2.43;;;1.00;;
16254;SDS011;8235;52.198;9.904;2023-03-31T05:07:13;5.43;;;1.43;;
16254;SDS011;8235;52.198;9.904;2023-03-31T05:09:40;2.67;;;1.30;;
16254;SDS011;8235;52.198;9.904;2023-03-31T05:12:06;2.83;;;0.83;;
16254;SDS011;8235;52.198;9.904;2023-03-31T05:14:33;3.73;;;1.07;;
16254;SDS011;8235;52.198;9.904;2023-03-31T05:17:01;2.27;;;1.10;;
16254;SDS011;8235;52.198;9.904;2023-03-31T05:19:27;2.70;;;0.90;;
16254;SDS011;8235;52.198;9.904;2023-03-31T05:21:53;3.53;;;1.03;;
16254;SDS011;8235;52.198;9.904;2023-03-31T05:24:20;3.60;;;1.00;;
16254;SDS011;8235;52.198;9.904;2023-03-31T05:26:47;5.03;;;1.43;;
16254;SDS011;8235;52.198;9.904;2023-03-31T05:29:16;4.80;;;1.53;;
16254;SDS011;8235;52.198;9.904;2023-03-31T05:31:43;3.83;;;1.10;;
16254;SDS011;8235;52.198;9.904;2023-03-31T05:34:11;3.00;;;1.10;;
16254;SDS011;8235;52.198;9.904;2023-03-31T05:36:37;4.20;;;0.83;;
16254;SDS011;8235;52.198;9.904;2023-03-31T05:39:04;4.70;;;1.03;;
16254;SDS011;8235;52.198;9.904;2023-03-31T05:41:31;3.73;;;1.10;;
16254;SDS011;8235;52.198;9.904;2023-03-31T05:43:58;4.47;;;1.60;;
16254;SDS011;8235;52.198;9.904;2023-03-31T05:46:26;3.17;;;0.80;;
16254;SDS011;8235;52.198;9.904;2023-03-31T05:48:52;2.73;;;0.90;;
16254;SDS011;8235;52.198;9.904;2023-03-31T05:51:20;5.57;;;1.30;;
16254;SDS011;8235;52.198;9.904;2023-03-31T05:53:47;6.60;;;1.63;;
16254;SDS011;8235;52.198;9.904;2023-03-31T05:56:13;2.90;;;1.30;;
16254;SDS011;8235;52.198;9.904;2023-03-31T05:58:40;4.13;;;1.13;;
16254;SDS011;8235;52.198;9.904;2023-03-31T06:01:07;3.77;;;1.07;;
16254;SDS011;8235;52.198;9.904;2023-03-31T06:03:35;5.40;;;2.53;;
16254;SDS011;8235;52.198;9.904;2023-03-31T06:06:03;3.93;;;1.70;;
16254;SDS011;8235;52.198;9.904;2023-03-31T06:08:33;5.13;;;1.73;;
16254;SDS011;8235;52.198;9.904;2023-03-31T06:11:02;3.50;;;1.37;;
16254;SDS011;8235;52.198;9.904;2023-03-31T06:13:30;4.83;;;1.47;;
16254;SDS011;8235;52.198;9.904;2023-03-31T06:15:57;5.27;;;1.03;;
16254;SDS011;8235;52.198;9.904;2023-03-31T06:18:25;3.63;;;1.10;;
16254;SDS011;8235;52.198;9.904;2023-03-31T06:20:53;2.93;;;1.00;;
16254;SDS011;8235;52.198;9.904;2023-03-31T06:23:20;3.43;;;1.10;;
16254;SDS011;8235;52.198;9.904;2023-03-31T06:25:48;4.33;;;1.50;;
16254;SDS011;8235;52.198;9.904;2023-03-31T06:28:17;7.67;;;2.10;;
16254;SDS011;8235;52.198;9.904;2023-03-31T06:30:43;3.70;;;1.60;;
16254;SDS011;8235;52.198;9.904;2023-03-31T06:33:10;4.43;;;1.63;;
16254;SDS011;8235;52.198;9.904;2023-03-31T06:35:37;2.23;;;1.33;;
16254;SDS011;8235;52.198;9.904;2023-03-31T06:38:05;4.67;;;1.80;;
16254;SDS011;8235;52.198;9.904;2023-03-31T06:40:32;5.40;;;2.30;;
16254;SDS011;8235;52.198;9.904;2023-03-31T06:43:00;3.10;;;1.47;;
16254;SDS011;8235;52.198;9.904;2023-03-31T06:45:26;3.17;;;1.10;;
16254;SDS011;8235;52.198;9.904;2023-03-31T06:47:53;2.40;;;1.20;;
16254;SDS011;8235;52.198;9.904;2023-03-31T06:50:19;4.63;;;1.70;;
16254;SDS011;8235;52.198;9.904;2023-03-31T06:52:46;5.47;;;1.60;;
16254;SDS011;8235;52.198;9.904;2023-03-31T06:55:12;4.63;;;1.93;;
16254;SDS011;8235;52.198;9.904;2023-03-31T06:57:40;5.47;;;1.30;;
16254;SDS011;8235;52.198;9.904;2023-03-31T07:00:08;4.60;;;1.83;;
16254;SDS011;8235;52.198;9.904;2023-03-31T07:02:35;4.30;;;1.50;;
16254;SDS011;8235;52.198;9.904;2023-03-31T07:05:02;6.60;;;2.13;;
16254;SDS011;8235;52.198;9.904;2023-03-31T07:07:29;1.83;;;1.17;;
16254;SDS011;8235;52.198;9.904;2023-03-31T07:09:56;2.13;;;1.00;;
16254;SDS011;8235;52.198;9.904;2023-03-31T07:12:23;5.20;;;1.20;;
16254;SDS011;8235;52.198;9.904;2023-03-31T07:14:50;5.07;;;1.47;;
16254;SDS011;8235;52.198;9.904;2023-03-31T07:17:17;11.80;;;6.50;;
16254;SDS011;8235;52.198;9.904;2023-03-31T07:19:44;8.43;;;5.03;;
16254;SDS011;8235;52.198;9.904;2023-03-31T07:22:12;4.93;;;1.93;;
16254;SDS011;8235;52.198;9.904;2023-03-31T07:24:38;4.27;;;1.90;;
16254;SDS011;8235;52.198;9.904;2023-03-31T07:27:05;5.30;;;2.13;;
16254;SDS011;8235;52.198;9.904;2023-03-31T07:29:31;4.07;;;1.50;;
16254;SDS011;8235;52.198;9.904;2023-03-31T07:31:58;5.53;;;2.80;;
16254;SDS011;8235;52.198;9.904;2023-03-31T07:34:26;3.93;;;1.60;;
16254;SDS011;8235;52.198;9.904;2023-03-31T07:36:53;3.60;;;1.20;;
16254;SDS011;8235;52.198;9.904;2023-03-31T07:39:20;3.23;;;1.23;;
16254;SDS011;8235;52.198;9.904;2023-03-31T07:41:46;9.70;;;4.47;;
16254;SDS011;8235;52.198;9.904;2023-03-31T07:44:13;15.27;;;7.37;;
16254;SDS011;8235;52.198;9.904;2023-03-31T07:46:41;8.83;;;3.30;;
16254;SDS011;8235;52.198;9.904;2023-03-31T07:49:08;7.60;;;3.57;;
16254;SDS011;8235;52.198;9.904;2023-03-31T07:51:41;5.47;;;2.00;;
16254;SDS011;8235;52.198;9.904;2023-03-31T07:54:07;3.87;;;1.60;;
16254;SDS011;8235;52.198;9.904;2023-03-31T07:56:34;3.90;;;1.33;;
16254;SDS011;8235;52.198;9.904;2023-03-31T07:59:00;3.67;;;1.40;;
16254;SDS011;8235;52.198;9.904;2023-03-31T08:01:27;2.20;;;1.90;;
16254;SDS011;8235;52.198;9.904;2023-03-31T08:03:53;1.70;;;1.60;;
16254;SDS011;8235;52.198;9.904;2023-03-31T08:06:21;4.20;;;1.40;;
16254;SDS011;8235;52.198;9.904;2023-03-31T08:08:51;3.63;;;1.53;;
16254;SDS011;8235;52.198;9.904;2023-03-31T08:11:17;4.33;;;1.40;;
16254;SDS011;8235;52.198;9.904;2023-03-31T08:13:45;2.30;;;1.10;;
16254;SDS011;8235;52.198;9.904;2023-03-31T08:16:11;3.60;;;1.47;;
16254;SDS011;8235;52.198;9.904;2023-03-31T08:18:38;2.37;;;1.43;;
16254;SDS011;8235;52.198;9.904;2023-03-31T08:21:04;2.23;;;1.10;;
16254;SDS011;8235;52.198;9.904;2023-03-31T08:23:33;2.73;;;1.20;;
16254;SDS011;8235;52.198;9.904;2023-03-31T08:26:08;4.03;;;1.50;;
16254;SDS011;8235;52.198;9.904;2023-03-31T08:28:36;1.73;;;1.10;;
16254;SDS011;8235;52.198;9.904;2023-03-31T08:31:03;4.13;;;1.10;;
16254;SDS011;8235;52.198;9.904;2023-03-31T08:33:30;1.53;;;1.30;;
16254;SDS011;8235;52.198;9.904;2023-03-31T08:36:00;2.73;;;0.93;;
16254;SDS011;8235;52.198;9.904;2023-03-31T08:38:27;2.40;;;1.10;;
16254;SDS011;8235;52.198;9.904;2023-03-31T08:40:57;1.43;;;1.13;;
16254;SDS011;8235;52.198;9.904;2023-03-31T08:43:26;3.67;;;1.20;;
16254;SDS011;8235;52.198;9.904;2023-03-31T08:45:57;2.10;;;0.97;;
16254;SDS011;8235;52.198;9.904;2023-03-31T08:48:25;3.73;;;1.40;;
16254;SDS011;8235;52.198;9.904;2023-03-31T08:50:54;2.70;;;0.80;;
16254;SDS011;8235;52.198;9.904;2023-03-31T08:53:27;4.27;;;1.10;;
16254;SDS011;8235;52.198;9.904;2023-03-31T08:55:56;2.70;;;0.97;;
16254;SDS011;8235;52.198;9.904;2023-03-31T08:58:28;2.10;;;0.87;;
16254;SDS011;8235;52.198;9.904;2023-03-31T09:01:10;2.60;;;0.90;;
16254;SDS011;8235;52.198;9.904;2023-03-31T09:03:45;4.50;;;1.23;;
16254;SDS011;8235;52.198;9.904;2023-03-31T09:06:25;1.67;;;0.93;;
16254;SDS011;8235;52.198;9.904;2023-03-31T09:09:00;3.73;;;1.10;;
16254;SDS011;8235;52.198;9.904;2023-03-31T09:11:31;1.77;;;0.77;;
16254;SDS011;8235;52.198;9.904;2023-03-31T09:14:06;3.17;;;0.70;;
16254;SDS011;8235;52.198;9.904;2023-03-31T09:16:44;2.30;;;0.70;;
16254;SDS011;8235;52.198;9.904;2023-03-31T09:19:17;3.60;;;0.80;;
16254;SDS011;8235;52.198;9.904;2023-03-31T09:21:47;2.30;;;0.80;;
16254;SDS011;8235;52.198;9.904;2023-03-31T09:24:17;1.53;;;0.70;;
16254;SDS011;8235;52.198;9.904;2023-03-31T09:26:48;2.03;;;0.80;;
16254;SDS011;8235;52.198;9.904;2023-03-31T09:29:20;1.73;;;0.77;;
16254;SDS011;8235;52.198;9.904;2023-03-31T09:31:51;2.20;;;0.80;;
16254;SDS011;8235;52.198;9.904;2023-03-31T09:34:20;2.37;;;0.80;;
16254;SDS011;8235;52.198;9.904;2023-03-31T09:36:50;3.53;;;1.40;;
16254;SDS011;8235;52.198;9.904;2023-03-31T09:39:16;3.60;;;1.53;;
16254;SDS011;8235;52.198;9.904;2023-03-31T09:41:43;5.03;;;1.97;;
16254;SDS011;8235;52.198;9.904;2023-03-31T09:44:21;3.67;;;1.57;;
16254;SDS011;8235;52.198;9.904;2023-03-31T09:46:51;2.47;;;0.80;;
16254;SDS011;8235;52.198;9.904;2023-03-31T09:49:19;1.97;;;1.27;;
16254;SDS011;8235;52.198;9.904;2023-03-31T09:51:48;2.07;;;0.93;;
16254;SDS011;8235;52.198;9.904;2023-03-31T09:54:24;2.07;;;0.80;;
16254;SDS011;8235;52.198;9.904;2023-03-31T09:56:55;1.57;;;0.50;;
16254;SDS011;8235;52.198;9.904;2023-03-31T09:59:29;2.00;;;0.70;;
16254;SDS011;8235;52.198;9.904;2023-03-31T10:01:59;2.43;;;0.80;;
16254;SDS011;8235;52.198;9.904;2023-03-31T10:04:29;0.90;;;0.70;;
16254;SDS011;8235;52.198;9.904;2023-03-31T10:06:58;1.17;;;0.60;;
16254;SDS011;8235;52.198;9.904;2023-03-31T10:09:26;0.97;;;0.60;;
16254;SDS011;8235;52.198;9.904;2023-03-31T10:11:55;1.23;;;0.70;;
16254;SDS011;8235;52.198;9.904;2023-03-31T10:14:34;1.90;;;0.80;;
16254;SDS011;8235;52.198;9.904;2023-03-31T10:17:05;1.63;;;0.60;;
16254;SDS011;8235;52.198;9.904;2023-03-31T10:19:32;4.07;;;0.80;;
16254;SDS011;8235;52.198;9.904;2023-03-31T10:22:03;2.00;;;0.60;;
16254;SDS011;8235;52.198;9.904;2023-03-31T10:24:38;0.70;;;0.60;;
16254;SDS011;8235;52.198;9.904;2023-03-31T10:27:06;2.40;;;0.80;;
16254;SDS011;8235;52.198;9.904;2023-03-31T10:29:45;2.43;;;0.80;;
16254;SDS011;8235;52.198;9.904;2023-03-31T10:32:15;1.23;;;0.53;;
16254;SDS011;8235;52.198;9.904;2023-03-31T10:34:47;0.97;;;0.60;;
16254;SDS011;8235;52.198;9.904;2023-03-31T10:37:15;1.63;;;0.60;;
16254;SDS011;8235;52.198;9.904;2023-03-31T10:39:44;1.43;;;0.40;;
16254;SDS011;8235;52.198;9.904;2023-03-31T10:42:16;1.10;;;0.30;;
16254;SDS011;8235;52.198;9.904;2023-03-31T10:44:47;2.73;;;0.57;;
16254;SDS011;8235;52.198;9.904;2023-03-31T10:47:17;0.40;;;0.40;;
16254;SDS011;8235;52.198;9.904;2023-03-31T10:49:47;0.67;;;0.40;;
16254;SDS011;8235;52.198;9.904;2023-03-31T10:52:17;0.23;;;0.20;;
16254;SDS011;8235;52.198;9.904;2023-03-31T10:54:47;1.13;;;0.50;;
16254;SDS011;8235;52.198;9.904;2023-03-31T10:57:22;1.67;;;0.60;;
16254;SDS011;8235;52.198;9.904;2023-03-31T11:00:02;0.93;;;0.57;;
16254;SDS011;8235;52.198;9.904;2023-03-31T11:02:46;2.10;;;0.40;;
16254;SDS011;8235;52.198;9.904;2023-03-31T11:05:28;1.50;;;0.50;;
16254;SDS011;8235;52.198;9.904;2023-03-31T11:08:02;1.03;;;0.50;;
16254;SDS011;8235;52.198;9.904;2023-03-31T11:10:42;2.53;;;0.30;;
16254;SDS011;8235;52.198;9.904;2023-03-31T11:13:20;0.70;;;0.30;;
16254;SDS011;8235;52.198;9.904;2023-03-31T11:15:58;0.57;;;0.40;;
16254;SDS011;8235;52.198;9.904;2023-03-31T11:18:40;1.27;;;0.30;;
16254;SDS011;8235;52.198;9.904;2023-03-31T11:21:18;1.30;;;0.37;;
16254;SDS011;8235;52.198;9.904;2023-03-31T11:23:50;0.57;;;0.30;;
16254;SDS011;8235;52.198;9.904;2023-03-31T11:26:26;0.90;;;0.30;;
16254;SDS011;8235;52.198;9.904;2023-03-31T11:29:05;1.13;;;0.30;;
16254;SDS011;8235;52.198;9.904;2023-03-31T11:31:49;0.83;;;0.53;;
16254;SDS011;8235;52.198;9.904;2023-03-31T11:34:25;0.73;;;0.50;;
16254;SDS011;8235;52.198;9.904;2023-03-31T11:37:14;1.43;;;0.60;;
16254;SDS011;8235;52.198;9.904;2023-03-31T11:39:58;0.40;;;0.30;;
16254;SDS011;8235;52.198;9.904;2023-03-31T11:42:39;0.80;;;0.60;;
16254;SDS011;8235;52.198;9.904;2023-03-31T11:45:14;1.67;;;1.10;;
16254;SDS011;8235;52.198;9.904;2023-03-31T11:47:45;2.10;;;0.30;;
16254;SDS011;8235;52.198;9.904;2023-03-31T11:50:15;0.80;;;0.60;;
16254;SDS011;8235;52.198;9.904;2023-03-31T11:52:47;1.70;;;0.67;;
16254;SDS011;8235;52.198;9.904;2023-03-31T11:55:20;0.93;;;0.53;;
16254;SDS011;8235;52.198;9.904;2023-03-31T11:57:52;1.00;;;0.50;;
16254;SDS011;8235;52.198;9.904;2023-03-31T12:00:26;0.83;;;0.80;;
16254;SDS011;8235;52.198;9.904;2023-03-31T12:02:58;1.00;;;0.80;;
16254;SDS011;8235;52.198;9.904;2023-03-31T12:05:30;1.90;;;0.40;;
16254;SDS011;8235;52.198;9.904;2023-03-31T12:08:00;10.87;;;3.23;;
16254;SDS011;8235;52.198;9.904;2023-03-31T12:10:31;20.53;;;4.40;;
16254;SDS011;8235;52.198;9.904;2023-03-31T12:13:12;8.77;;;2.80;;
16254;SDS011;8235;52.198;9.904;2023-03-31T12:15:51;12.40;;;3.63;;
16254;SDS011;8235;52.198;9.904;2023-03-31T12:18:27;3.93;;;1.50;;
16254;SDS011;8235;52.198;9.904;2023-03-31T12:21:00;7.57;;;2.57;;
16254;SDS011;8235;52.198;9.904;2023-03-31T12:23:29;5.47;;;1.97;;
16254;SDS011;8235;52.198;9.904;2023-03-31T12:26:00;4.63;;;1.63;;
16254;SDS011;8235;52.198;9.904;2023-03-31T12:28:33;7.00;;;2.03;;
16254;SDS011;8235;52.198;9.904;2023-03-31T12:31:02;10.40;;;3.73;;
16254;SDS011;8235;52.198;9.904;2023-03-31T12:33:33;7.87;;;1.97;;
16254;SDS011;8235;52.198;9.904;2023-03-31T12:36:14;6.23;;;2.43;;
16254;SDS011;8235;52.198;9.904;2023-03-31T12:38:55;3.93;;;1.40;;
16254;SDS011;8235;52.198;9.904;2023-03-31T12:41:34;3.97;;;0.87;;
16254;SDS011;8235;52.198;9.904;2023-03-31T12:44:12;1.90;;;0.90;;
16254;SDS011;8235;52.198;9.904;2023-03-31T12:46:54;3.57;;;1.27;;
16254;SDS011;8235;52.198;9.904;2023-03-31T12:49:44;2.17;;;1.80;;
16254;SDS011;8235;52.198;9.904;2023-03-31T12:52:20;1.97;;;0.90;;
16254;SDS011;8235;52.198;9.904;2023-03-31T12:54:56;2.27;;;1.27;;
16254;SDS011;8235;52.198;9.904;2023-03-31T12:57:34;0.87;;;0.80;;
16254;SDS011;8235;52.198;9.904;2023-03-31T13:02:48;3.13;;;0.80;;
16254;SDS011;8235;52.198;9.904;2023-03-31T13:08:47;3.13;;;0.87;;
16254;SDS011;8235;52.198;9.904;2023-03-31T13:11:17;2.27;;;0.90;;
16254;SDS011;8235;52.198;9.904;2023-03-31T13:13:51;2.03;;;0.50;;
16254;SDS011;8235;52.198;9.904;2023-03-31T13:16:24;3.03;;;1.00;;
16254;SDS011;8235;52.198;9.904;2023-03-31T13:18:51;1.37;;;1.10;;
16254;SDS011;8235;52.198;9.904;2023-03-31T13:21:19;2.70;;;1.00;;
16254;SDS011;8235;52.198;9.904;2023-03-31T13:23:46;1.20;;;0.70;;
16254;SDS011;8235;52.198;9.904;2023-03-31T13:29:16;3.67;;;1.00;;
16254;SDS011;8235;52.198;9.904;2023-03-31T13:34:32;2.93;;;0.87;;
16254;SDS011;8235;52.198;9.904;2023-03-31T13:37:07;1.90;;;0.70;;
16254;SDS011;8235;52.198;9.904;2023-03-31T13:45:47;4.43;;;1.10;;
16254;SDS011;8235;52.198;9.904;2023-03-31T13:48:23;3.90;;;1.23;;
16254;SDS011;8235;52.198;9.904;2023-03-31T13:51:08;2.53;;;1.10;;
16254;SDS011;8235;52.198;9.904;2023-03-31T13:53:52;4.90;;;3.03;;
16254;SDS011;8235;52.198;9.904;2023-03-31T13:56:34;4.43;;;1.23;;
16254;SDS011;8235;52.198;9.904;2023-03-31T13:59:27;3.80;;;1.47;;
16254;SDS011;8235;52.198;9.904;2023-03-31T14:02:11;4.50;;;1.60;;
16254;SDS011;8235;52.198;9.904;2023-03-31T14:08:00;4.07;;;1.40;;
16254;SDS011;8235;52.198;9.904;2023-03-31T14:10:32;4.53;;;1.47;;
16254;SDS011;8235;52.198;9.904;2023-03-31T14:13:04;2.63;;;1.57;;
16254;SDS011;8235;52.198;9.904;2023-03-31T14:15:36;3.30;;;1.53;;
16254;SDS011;8235;52.198;9.904;2023-03-31T14:18:05;3.20;;;1.17;;
16254;SDS011;8235;52.198;9.904;2023-03-31T14:20:37;3.70;;;1.10;;
16254;SDS011;8235;52.198;9.904;2023-03-31T14:23:13;6.30;;;2.23;;
16254;SDS011;8235;52.198;9.904;2023-03-31T14:25:52;3.70;;;1.83;;
16254;SDS011;8235;52.198;9.904;2023-03-31T14:28:30;3.70;;;1.37;;
16254;SDS011;8235;52.198;9.904;2023-03-31T14:31:14;3.70;;;1.53;;
16254;SDS011;8235;52.198;9.904;2023-03-31T14:33:51;6.60;;;1.60;;
16254;SDS011;8235;52.198;9.904;2023-03-31T14:36:29;5.00;;;1.53;;
16254;SDS011;8235;52.198;9.904;2023-03-31T14:39:03;3.67;;;1.40;;
16254;SDS011;8235;52.198;9.904;2023-03-31T14:41:31;5.27;;;2.40;;
16254;SDS011;8235;52.198;9.904;2023-03-31T14:44:00;7.93;;;3.53;;
16254;SDS011;8235;52.198;9.904;2023-03-31T14:46:34;5.47;;;1.87;;
16254;SDS011;8235;52.198;9.904;2023-03-31T14:49:05;6.13;;;3.60;;
16254;SDS011;8235;52.198;9.904;2023-03-31T14:51:41;2.77;;;1.70;;
16254;SDS011;8235;52.198;9.904;2023-03-31T14:54:16;4.47;;;1.30;;
16254;SDS011;8235;52.198;9.904;2023-03-31T14:56:44;2.30;;;0.87;;
16254;SDS011;8235;52.198;9.904;2023-03-31T14:59:14;1.80;;;0.70;;
16254;SDS011;8235;52.198;9.904;2023-03-31T15:01:53;1.70;;;1.00;;
16254;SDS011;8235;52.198;9.904;2023-03-31T15:04:23;2.03;;;0.87;;
16254;SDS011;8235;52.198;9.904;2023-03-31T15:06:53;1.73;;;1.10;;
16254;SDS011;8235;52.198;9.904;2023-03-31T15:09:27;3.77;;;2.27;;
16254;SDS011;8235;52.198;9.904;2023-03-31T15:11:58;2.07;;;1.53;;
16254;SDS011;8235;52.198;9.904;2023-03-31T15:17:30;2.40;;;1.20;;
16254;SDS011;8235;52.198;9.904;2023-03-31T15:20:22;2.90;;;0.70;;
16254;SDS011;8235;52.198;9.904;2023-03-31T15:22:55;3.27;;;1.00;;
16254;SDS011;8235;52.198;9.904;2023-03-31T15:25:23;1.03;;;0.70;;
16254;SDS011;8235;52.198;9.904;2023-03-31T15:27:57;2.43;;;1.10;;
16254;SDS011;8235;52.198;9.904;2023-03-31T15:30:28;1.67;;;0.70;;
16254;SDS011;8235;52.198;9.904;2023-03-31T15:32:57;3.17;;;0.70;;
16254;SDS011;8235;52.198;9.904;2023-03-31T15:35:28;1.43;;;0.80;;
16254;SDS011;8235;52.198;9.904;2023-03-31T15:37:57;2.03;;;0.60;;
16254;SDS011;8235;52.198;9.904;2023-03-31T15:40:25;2.63;;;0.80;;
16254;SDS011;8235;52.198;9.904;2023-03-31T15:42:54;2.07;;;0.83;;
16254;SDS011;8235;52.198;9.904;2023-03-31T15:45:36;1.43;;;0.70;;
16254;SDS011;8235;52.198;9.904;2023-03-31T15:48:15;1.90;;;0.60;;
16254;SDS011;8235;52.198;9.904;2023-03-31T15:54:17;2.87;;;1.50;;
16254;SDS011;8235;52.198;9.904;2023-03-31T15:56:55;5.23;;;3.03;;
16254;SDS011;8235;52.198;9.904;2023-03-31T15:59:25;4.20;;;3.20;;